METAR AND TAF INFORMATION
METAR FOR KMHT
ADDS - METARS form results

(1203 UTC 21 February 2019)
Data provider http://aviationweather.gov/metar/data/
 
METAR text: KMHT 211153Z 36006KT 1 1/2SM -FZDZ BR BKN005 OVC016 M03/M04 A2988 RMK AO2 SFC VIS 2 SLP138 4/006 P0000 60028 70037 I1003 I6005 T10331044 11033 21050 58028
Conditions at: KMHT (MANCHESTER , NH, US) observed 1153 UTC 21 February 2019
Temperature: -3.3°C (26°F)
Dewpoint: -4.4°C (24°F) [RH = 92%]
Pressure (altimeter): 29.88 inches Hg (1011.9 mb)
[Sea-level pressure: 1013.8 mb]
Winds: from the N (360 degrees) at 7 MPH (6 knots; 3.1 m/s)
Visibility: 1.50 miles (2.41 km)
Ceiling: 500 feet AGL
Clouds: broken clouds at 500 feet AGL
overcast cloud deck at 1600 feet AGL
Weather: -FZDZ BR  (light freezing drizzle, mist)

METAR text: KMHT 211135Z 35008KT 1 1/2SM -FZDZ BR OVC005 M03/M05 A2990 RMK AO2 SFC VIS 2 4/006 P0000 I1001 T10331050
Conditions at: KMHT (MANCHESTER , NH, US) observed 1135 UTC 21 February 2019
Temperature: -3.3°C (26°F)
Dewpoint: -5.0°C (23°F) [RH = 88%]
Pressure (altimeter): 29.90 inches Hg (1012.6 mb)
Winds: from the N (350 degrees) at 9 MPH (8 knots; 4.1 m/s)
Visibility: 1.50 miles (2.41 km)
Ceiling: 500 feet AGL
Clouds: overcast cloud deck at 500 feet AGL
Weather: -FZDZ BR  (light freezing drizzle, mist)

METAR text: KMHT 211129Z 34007KT 1 1/2SM -FZDZ BR OVC004 M03/M05 A2990 RMK AO2 SFC VIS 3 P0000 I1001 T10331050
Conditions at: KMHT (MANCHESTER , NH, US) observed 1129 UTC 21 February 2019
Temperature: -3.3°C (26°F)
Dewpoint: -5.0°C (23°F) [RH = 88%]
Pressure (altimeter): 29.90 inches Hg (1012.6 mb)
Winds: from the NNW (340 degrees) at 8 MPH (7 knots; 3.6 m/s)
Visibility: 1.50 miles (2.41 km)
Ceiling: 400 feet AGL
Clouds: overcast cloud deck at 400 feet AGL
Weather: -FZDZ BR  (light freezing drizzle, mist)

METAR text: KMHT 211105Z 33006KT 1 1/2SM -FZDZ BR BKN005 OVC013 M04/M05 A2992 RMK AO2 SFC VIS 3 P0000 I1000 T10391050
Conditions at: KMHT (MANCHESTER , NH, US) observed 1105 UTC 21 February 2019
Temperature: -3.9°C (25°F)
Dewpoint: -5.0°C (23°F) [RH = 92%]
Pressure (altimeter): 29.92 inches Hg (1013.3 mb)
Winds: from the NNW (330 degrees) at 7 MPH (6 knots; 3.1 m/s)
Visibility: 1.50 miles (2.41 km)
Ceiling: 500 feet AGL
Clouds: broken clouds at 500 feet AGL
overcast cloud deck at 1300 feet AGL
Weather: -FZDZ BR  (light freezing drizzle, mist)

Forecast for: KMHT (MANCHESTER , NH, US)
Text: KMHT 211128Z 2112/2212 VRB03KT 3SM -FZDZ BR BKN005 OVC012
Forecast period: 1200 to 1300 UTC 21 February 2019
Forecast type: FROM: standard forecast or significant change
Winds: variable direction winds at 3 MPH (3 knots; 1.5 m/s)
Visibility: 3 miles (5 km)
Ceiling: 500 feet AGL
Clouds: broken clouds at 500 feet AGL
overcast cloud deck at 1200 feet AGL
Weather: -FZDZ BR  (light freezing drizzle, mist)
Text: FM211300 34004KT P6SM BKN012 OVC025
Forecast period: 1300 to 1600 UTC 21 February 2019
Forecast type: FROM: standard forecast or significant change
Winds: from the NNW (340 degrees) at 5 MPH (4 knots; 2.1 m/s)
Visibility: 6 or more miles 10+ km)
Ceiling: 1200 feet AGL
Clouds: broken clouds at 1200 feet AGL
overcast cloud deck at 2500 feet AGL
Weather: no significant weather forecast for this period
Text: FM211600 29010G18KT P6SM SCT035 BKN070
Forecast period: 1600 to 2300 UTC 21 February 2019
Forecast type: FROM: standard forecast or significant change
Winds: from the WNW (290 degrees) at 12 MPH (10 knots; 5.1 m/s)
gusting to 21 MPH (18 knots; 9.3 m/s)
Visibility: 6 or more miles 10+ km)
Ceiling: 7000 feet AGL
Clouds: scattered clouds at 3500 feet AGL
broken clouds at 7000 feet AGL
Weather: no significant weather forecast for this period
Text: FM212300 29008KT P6SM FEW070
Forecast period: 2300 UTC 21 February 2019 to 1200 UTC 22 February 2019
Forecast type: FROM: standard forecast or significant change
Winds: from the WNW (290 degrees) at 9 MPH (8 knots; 4.1 m/s)
Visibility: 6 or more miles 10+ km)
Ceiling: at least 12,000 feet AGL
Clouds: few clouds at 7000 feet AGL
Weather: no significant weather forecast for this period

 AIRPORT MAP

 RUNWAY INFORMATION
Runway 06 Runway length 6850 ft Runway width 150 ft
Runway elevation 220 ft Runway displaced threshold 0 ft Runway heading 42
Runway 24 Runway length 6850 ft Runway width 150 ft
Runway elevation 238 ft Runway displaced threshold 0 ft Runway heading 222
Runway 17 Runway length 9250 ft Runway width 150 ft
Runway elevation 218 ft Runway displaced threshold 336 ft Runway heading 157
Runway 35 Runway length 9250 ft Runway width 150 ft
Runway elevation 265 ft Runway displaced threshold 850 ft Runway heading 337

 AIRPORT FREQUENCIES
Type A/D Name Boston App Frequency 124.9 MHZ
Type A/D Name Boston App Frequency 134.75 MHZ
Type ASOS Name ASOS Frequency 119.55 MHZ
Type ATIS Name ATIS Frequency 119.55 MHZ
Type CLD Name CLNC DEL Frequency 135.9 MHZ
Type GND Name GND Frequency 121.9 MHZ
Type RDO Name BANGOR RDO Frequency 114.4 MHZ
Type TWR Name TWR Frequency 121.3 MHZ
Type UNIC Name UNICOM Frequency 122.95 MHZ

 AIRPORT NEAR NAVIGATION AIDS



Powered by Virtual Airlines Manager [[v2.6.2]]